Time;durP1;ratioP1;P1;durP2;ratioP2;P2;SDS_P1;SDS_P2;PMS_P1;PMS_P2;Temp;Humidity;BMP_temperature;BMP_pressure;BME280_temperature;BME280_humidity;BME280_pressure;Samples;Min_cycle;Max_cycle;Signal;HPM_P1;HPM_P2
2021/11/12 00:13:40;;;;;;;19.00;2.70;;;;;;;;;;5034620;28;20113;-50
2021/11/12 00:16:07;;;;;;;18.70;3.28;;;;;;;;;;5031442;28;20183;-40
2021/11/12 00:18:35;;;;;;;16.55;2.95;;;;;;;;;;5031019;28;20444;-59
2021/11/12 00:21:03;;;;;;;15.25;3.35;;;;;;;;;;5032242;28;20540;-44
2021/11/12 00:23:31;;;;;;;21.08;3.63;;;;;;;;;;5031074;28;20388;-42
2021/11/12 00:25:59;;;;;;;21.20;3.25;;;;;;;;;;5031110;28;20029;-63
2021/11/12 00:28:30;;;;;;;23.85;3.65;;;;;;;;;;5031888;28;20109;-60
2021/11/12 00:38:48;;;;;;;18.88;3.35;;;;;;;;;;5038025;28;20100;-52
2021/11/12 00:41:37;;;;;;;11.73;2.85;;;;;;;;;;5031089;28;20033;-39
2021/11/12 00:44:32;;;;;;;22.45;3.78;;;;;;;;;;5031594;28;20049;-46
2021/11/12 00:47:01;;;;;;;24.20;3.80;;;;;;;;;;5032511;28;20419;-35
2021/11/12 00:49:36;;;;;;;16.85;3.38;;;;;;;;;;5037356;28;20397;-37
2021/11/12 00:52:14;;;;;;;16.75;2.85;;;;;;;;;;5034386;28;20049;-44
2021/11/12 00:54:41;;;;;;;14.95;2.67;;;;;;;;;;5032151;28;20037;-40
2021/11/12 00:57:10;;;;;;;21.52;3.40;;;;;;;;;;5036150;28;20033;-51
2021/11/12 00:59:37;;;;;;;14.98;3.13;;;;;;;;;;5037117;28;20053;-39
2021/11/12 01:02:04;;;;;;;18.15;3.13;;;;;;;;;;5035261;28;20021;-42
2021/11/12 01:04:31;;;;;;;17.98;3.05;;;;;;;;;;5032706;28;20041;-41
2021/11/12 01:06:58;;;;;;;16.90;3.22;;;;;;;;;;5038424;28;20520;-40
2021/11/12 01:09:25;;;;;;;22.20;3.03;;;;;;;;;;5032313;28;20083;-41
2021/11/12 01:11:52;;;;;;;20.10;2.92;;;;;;;;;;5037228;28;20028;-37
2021/11/12 01:14:22;;;;;;;14.90;3.15;;;;;;;;;;5034109;28;20052;-42
2021/11/12 01:16:49;;;;;;;15.57;3.80;;;;;;;;;;5038438;28;20013;-40
2021/11/12 01:19:17;;;;;;;24.02;4.18;;;;;;;;;;5036214;28;20013;-41
2021/11/12 01:21:44;;;;;;;24.13;4.88;;;;;;;;;;5036542;28;20026;-41
2021/11/12 01:24:11;;;;;;;22.65;4.47;;;;;;;;;;5046114;28;21145;-43
2021/11/12 01:26:38;;;;;;;23.08;5.55;;;;;;;;;;5044325;28;20029;-43
2021/11/12 01:29:05;;;;;;;22.60;5.40;;;;;;;;;;5046886;28;20025;-42
2021/11/12 01:31:33;;;;;;;21.92;5.22;;;;;;;;;;5041553;28;20380;-45
2021/11/12 01:34:06;;;;;;;28.48;6.28;;;;;;;;;;5047024;28;20018;-41
2021/11/12 01:36:37;;;;;;;16.40;4.57;;;;;;;;;;5039038;28;20038;-44
2021/11/12 01:39:07;;;;;;;21.20;5.10;;;;;;;;;;5048300;28;20115;-40
2021/11/12 01:41:36;;;;;;;22.38;5.05;;;;;;;;;;5041956;28;20032;-38
2021/11/12 01:44:06;;;;;;;24.13;5.43;;;;;;;;;;5042789;28;20039;-41
2021/11/12 01:46:59;;;;;;;16.27;4.80;;;;;;;;;;5038327;28;20060;-43
2021/11/12 01:49:36;;;;;;;18.27;4.53;;;;;;;;;;5035843;28;20024;-42
2021/11/12 01:52:15;;;;;;;34.83;5.65;;;;;;;;;;5041702;28;20362;-44
2021/11/12 01:55:39;;;;;;;22.98;4.65;;;;;;;;;;5031760;28;20068;-40
2021/11/12 02:00:17;;;;;;;32.10;4.75;;;;;;;;;;5038157;28;20055;-42
2021/11/12 02:02:44;;;;;;;21.92;4.40;;;;;;;;;;5030443;28;20036;-41
2021/11/12 02:05:11;;;;;;;21.55;4.13;;;;;;;;;;5032500;28;20033;-36
2021/11/12 02:07:39;;;;;;;19.98;4.35;;;;;;;;;;5035889;28;20023;-46
2021/11/12 02:10:07;;;;;;;17.02;4.50;;;;;;;;;;5033598;28;20070;-45
2021/11/12 02:12:44;;;;;;;22.25;4.28;;;;;;;;;;5033209;28;20025;-42
2021/11/12 02:15:12;;;;;;;17.05;4.03;;;;;;;;;;5037514;28;20021;-45
2021/11/12 02:17:43;;;;;;;19.15;4.15;;;;;;;;;;5033424;28;20104;-43
2021/11/12 02:20:47;;;;;;;16.88;3.53;;;;;;;;;;5034140;28;20040;-47
2021/11/12 02:23:05;;;;;;;12.40;3.92;;;;;;;;;;5034844;28;20481;-42
2021/11/12 02:25:41;;;;;;;13.77;3.58;;;;;;;;;;5036598;28;20037;-45
2021/11/12 02:28:12;;;;;;;19.58;3.70;;;;;;;;;;5038239;28;20143;-44
2021/11/12 02:30:40;;;;;;;15.40;3.53;;;;;;;;;;5041060;28;20029;-43
2021/11/12 02:33:07;;;;;;;17.75;3.50;;;;;;;;;;5035752;28;20477;-45
2021/11/12 02:35:36;;;;;;;15.77;3.72;;;;;;;;;;5038785;28;20066;-37
2021/11/12 02:38:04;;;;;;;16.63;3.30;;;;;;;;;;5036945;28;20021;-43
2021/11/12 02:40:32;;;;;;;18.88;3.20;;;;;;;;;;5050281;28;20045;-43
2021/11/12 02:42:59;;;;;;;18.17;3.33;;;;;;;;;;5050569;28;20476;-44
2021/11/12 02:45:26;;;;;;;26.85;3.70;;;;;;;;;;5053012;28;20041;-41
2021/11/12 02:47:53;;;;;;;16.27;3.35;;;;;;;;;;5053773;28;20048;-42
2021/11/12 02:50:20;;;;;;;18.60;3.20;;;;;;;;;;5054044;28;20053;-43
2021/11/12 02:52:53;;;;;;;21.83;3.70;;;;;;;;;;5053682;28;20381;-40
2021/11/12 02:55:20;;;;;;;24.83;3.83;;;;;;;;;;5054249;28;20021;-40
2021/11/12 02:57:48;;;;;;;14.18;3.10;;;;;;;;;;5046541;28;20053;-39
2021/11/12 03:00:16;;;;;;;17.20;2.92;;;;;;;;;;5033398;28;20025;-35
2021/11/12 03:02:43;;;;;;;21.70;3.38;;;;;;;;;;5033104;28;20032;-41
2021/11/12 03:05:10;;;;;;;18.75;3.33;;;;;;;;;;5033704;28;20489;-43
2021/11/12 03:07:37;;;;;;;13.18;2.92;;;;;;;;;;5033568;28;20488;-36
2021/11/12 03:10:04;;;;;;;14.02;2.90;;;;;;;;;;5033758;28;20104;-36
2021/11/12 03:12:31;;;;;;;15.75;3.40;;;;;;;;;;5033461;28;20032;-39
2021/11/12 03:14:58;;;;;;;19.63;3.40;;;;;;;;;;5033326;28;20067;-39
2021/11/12 03:17:25;;;;;;;21.55;2.88;;;;;;;;;;5032662;28;20026;-42
2021/11/12 03:19:52;;;;;;;10.15;2.78;;;;;;;;;;5033778;28;20024;-42
2021/11/12 03:22:22;;;;;;;14.82;2.95;;;;;;;;;;5033611;28;20009;-43
2021/11/12 03:24:57;;;;;;;11.95;3.17;;;;;;;;;;5033651;28;20038;-44
2021/11/12 03:27:41;;;;;;;12.55;2.80;;;;;;;;;;5033773;28;20014;-46
2021/11/12 04:00:05;;;;;;;11.48;2.30;;;;;;;;;;5033011;28;20516;-36
2021/11/12 04:02:50;;;;;;;11.98;2.45;;;;;;;;;;5032893;28;20049;-40
2021/11/12 04:05:34;;;;;;;10.75;2.17;;;;;;;;;;5032919;28;20496;-39
2021/11/12 04:20:09;;;;;;;10.82;1.90;;;;;;;;;;5033097;28;20080;-40
2021/11/12 04:49:40;;;;;;;8.93;1.80;;;;;;;;;;5032451;28;20121;-45
2021/11/12 05:44:31;;;;;;;5.65;1.35;;;;;;;;;;4996569;28;20052;-44
2021/11/12 05:55:06;;;;;;;5.38;1.35;;;;;;;;;;4996129;28;20045;-38
2021/11/12 05:57:34;;;;;;;3.50;1.25;;;;;;;;;;4998283;28;20034;-41
2021/11/12 06:00:01;;;;;;;4.82;1.23;;;;;;;;;;5035232;28;20104;-43
2021/11/12 06:02:28;;;;;;;3.35;1.38;;;;;;;;;;5035466;28;20026;-38
2021/11/12 06:04:55;;;;;;;3.83;1.25;;;;;;;;;;5035201;28;20033;-37
2021/11/12 06:07:22;;;;;;;4.63;0.95;;;;;;;;;;5035024;28;20029;-46
2021/11/12 06:09:49;;;;;;;3.33;1.40;;;;;;;;;;5035127;28;20033;-44
2021/11/12 06:12:16;;;;;;;3.92;1.20;;;;;;;;;;5034600;28;20026;-46
2021/11/12 06:14:43;;;;;;;5.13;1.55;;;;;;;;;;5034377;28;20481;-46
2021/11/12 06:17:10;;;;;;;3.15;1.10;;;;;;;;;;5035207;28;20083;-44
2021/11/12 06:19:37;;;;;;;4.53;1.10;;;;;;;;;;5035055;28;20037;-46
2021/11/12 06:22:04;;;;;;;3.22;1.00;;;;;;;;;;5034766;28;20064;-45
2021/11/12 06:24:32;;;;;;;2.72;1.33;;;;;;;;;;5034823;28;20485;-48
2021/11/12 06:26:59;;;;;;;3.53;1.23;;;;;;;;;;5034946;28;20433;-46
2021/11/12 06:29:26;;;;;;;3.25;1.13;;;;;;;;;;5034869;28;20025;-45
2021/11/12 06:31:54;;;;;;;3.53;1.35;;;;;;;;;;5033693;28;20013;-46
2021/11/12 06:34:21;;;;;;;3.50;1.10;;;;;;;;;;5034735;28;20358;-38
2021/11/12 06:36:48;;;;;;;3.42;1.08;;;;;;;;;;5034597;28;20028;-45
2021/11/12 06:39:15;;;;;;;4.47;0.98;;;;;;;;;;5034598;28;20037;-43
2021/11/12 06:41:54;;;;;;;3.10;1.23;;;;;;;;;;5044179;28;20025;-42
2021/11/12 06:52:24;;;;;;;2.35;1.10;;;;;;;;;;5053187;28;20485;-40
2021/11/12 06:54:52;;;;;;;2.65;1.10;;;;;;;;;;5054233;28;20013;-41
2021/11/12 06:57:20;;;;;;;3.33;1.30;;;;;;;;;;5054052;28;20021;-42
2021/11/12 06:59:47;;;;;;;3.65;0.80;;;;;;;;;;5053694;28;20492;-42
2021/11/12 07:02:15;;;;;;;4.35;1.20;;;;;;;;;;5054012;28;20025;-40
2021/11/12 07:04:42;;;;;;;4.30;1.20;;;;;;;;;;5054173;28;20029;-41
2021/11/12 07:07:09;;;;;;;1.95;0.90;;;;;;;;;;5053883;28;20025;-42
2021/11/12 07:09:38;;;;;;;1.95;1.10;;;;;;;;;;5053960;28;20032;-39
2021/11/12 07:12:05;;;;;;;4.57;1.38;;;;;;;;;;5053934;28;20045;-43
2021/11/12 07:14:32;;;;;;;2.55;1.27;;;;;;;;;;5053802;28;20092;-40
2021/11/12 07:16:59;;;;;;;1.85;0.80;;;;;;;;;;5053876;28;20392;-41
2021/11/12 07:19:26;;;;;;;2.28;0.80;;;;;;;;;;5053932;28;20398;-43
2021/11/12 07:21:55;;;;;;;2.13;0.90;;;;;;;;;;5053742;28;20032;-41
2021/11/12 07:24:23;;;;;;;3.10;1.10;;;;;;;;;;5053450;28;20079;-40
2021/11/12 07:26:50;;;;;;;2.63;0.98;;;;;;;;;;5053727;28;20025;-42
2021/11/12 07:29:19;;;;;;;3.63;1.40;;;;;;;;;;5053308;28;20029;-39
2021/11/12 07:31:46;;;;;;;3.85;1.20;;;;;;;;;;5053427;28;20021;-38
2021/11/12 07:34:13;;;;;;;1.75;0.80;;;;;;;;;;5053711;28;20021;-42
2021/11/12 07:36:45;;;;;;;2.42;0.95;;;;;;;;;;5053561;28;20468;-41
2021/11/12 07:39:21;;;;;;;4.68;1.10;;;;;;;;;;5053320;28;20033;-45
2021/11/12 07:44:40;;;;;;;1.95;0.75;;;;;;;;;;5053329;28;20029;-41
2021/11/12 07:47:14;;;;;;;3.33;1.08;;;;;;;;;;5053384;28;20750;-43
2021/11/12 07:49:46;;;;;;;2.20;0.93;;;;;;;;;;5053404;28;20025;-40
2021/11/12 07:52:13;;;;;;;2.88;1.05;;;;;;;;;;5053066;28;20021;-38
2021/11/12 07:54:41;;;;;;;2.58;1.05;;;;;;;;;;5052797;28;20025;-36
2021/11/12 07:57:09;;;;;;;1.63;0.90;;;;;;;;;;5053161;28;20028;-41
2021/11/12 07:59:36;;;;;;;3.08;1.00;;;;;;;;;;5052804;28;20041;-39
2021/11/12 08:02:04;;;;;;;5.20;1.23;;;;;;;;;;5052841;28;20361;-40
2021/11/12 08:04:31;;;;;;;2.22;1.00;;;;;;;;;;5052564;28;20457;-47
2021/11/12 08:07:00;;;;;;;2.90;1.10;;;;;;;;;;5052827;28;20100;-40
2021/11/12 08:09:31;;;;;;;2.25;0.82;;;;;;;;;;5052754;28;20457;-38
2021/11/12 08:12:04;;;;;;;2.10;0.88;;;;;;;;;;5052916;28;20029;-42
2021/11/12 08:19:43;;;;;;;3.50;1.00;;;;;;;;;;5051717;28;20071;-39
2021/11/12 08:22:15;;;;;;;4.88;1.27;;;;;;;;;;5052567;28;20021;-39
2021/11/12 08:24:53;;;;;;;2.35;0.77;;;;;;;;;;5052495;28;20037;-36
2021/11/12 08:43:06;;;;;;;3.47;0.80;;;;;;;;;;5052556;28;20099;-42
2021/11/12 08:45:45;;;;;;;1.23;0.77;;;;;;;;;;5052149;28;20040;-40
2021/11/12 08:48:17;;;;;;;2.35;0.82;;;;;;;;;;5051618;28;20025;-47
2021/11/12 08:50:44;;;;;;;1.60;0.80;;;;;;;;;;5052036;28;20704;-42
2021/11/12 08:53:14;;;;;;;1.95;0.88;;;;;;;;;;5051800;28;20460;-40
2021/11/12 08:55:42;;;;;;;3.22;0.70;;;;;;;;;;5052099;28;20788;-47
2021/11/12 08:58:10;;;;;;;2.28;0.80;;;;;;;;;;5051864;28;20068;-35
2021/11/12 09:00:39;;;;;;;1.13;0.63;;;;;;;;;;5051802;28;20096;-38
2021/11/12 09:03:06;;;;;;;2.00;0.65;;;;;;;;;;5052098;28;20353;-38
2021/11/12 09:05:33;;;;;;;1.92;0.90;;;;;;;;;;5051668;28;20447;-42
2021/11/12 09:08:00;;;;;;;2.22;0.70;;;;;;;;;;5051632;28;20078;-38
2021/11/12 09:10:28;;;;;;;5.13;0.90;;;;;;;;;;5051924;28;20504;-37
2021/11/12 09:13:07;;;;;;;3.45;0.75;;;;;;;;;;5051793;28;20029;-41
2021/11/12 09:15:34;;;;;;;1.30;0.70;;;;;;;;;;5051041;28;20035;-41
2021/11/12 09:18:02;;;;;;;8.35;1.10;;;;;;;;;;5050442;28;20043;-42
2021/11/12 09:20:29;;;;;;;2.92;1.05;;;;;;;;;;5051690;28;20058;-44
2021/11/12 09:22:59;;;;;;;1.75;0.60;;;;;;;;;;5051680;28;20092;-40
2021/11/12 09:25:26;;;;;;;1.30;0.55;;;;;;;;;;5051463;28;20044;-41
2021/11/12 09:27:53;;;;;;;1.73;0.73;;;;;;;;;;5051762;28;20017;-38
2021/11/12 09:30:22;;;;;;;1.33;0.80;;;;;;;;;;5051669;28;20020;-40
2021/11/12 09:32:50;;;;;;;1.50;0.70;;;;;;;;;;5051622;28;20021;-37
2021/11/12 09:35:17;;;;;;;2.08;0.88;;;;;;;;;;5051555;28;20017;-45
2021/11/12 09:37:44;;;;;;;1.77;0.70;;;;;;;;;;5051123;28;20021;-40
2021/11/12 09:40:11;;;;;;;3.78;0.73;;;;;;;;;;5051388;28;20389;-43
2021/11/12 09:42:39;;;;;;;2.58;0.73;;;;;;;;;;5051782;28;20104;-45
2021/11/12 09:45:09;;;;;;;1.17;0.70;;;;;;;;;;5051510;28;20025;-42
2021/11/12 09:47:36;;;;;;;2.53;0.82;;;;;;;;;;5051408;28;20029;-42
2021/11/12 09:50:05;;;;;;;1.88;0.80;;;;;;;;;;5051165;28;20075;-39
2021/11/12 09:52:33;;;;;;;1.50;0.60;;;;;;;;;;5051506;28;20049;-46
2021/11/12 09:55:00;;;;;;;1.73;0.63;;;;;;;;;;5051470;28;20640;-46
2021/11/12 09:57:30;;;;;;;1.23;0.70;;;;;;;;;;5051215;28;20033;-47
2021/11/12 09:59:59;;;;;;;1.67;0.77;;;;;;;;;;5051266;28;20528;-45
2021/11/12 10:02:29;;;;;;;2.25;0.80;;;;;;;;;;5050421;28;20022;-44
2021/11/12 10:04:56;;;;;;;2.10;0.85;;;;;;;;;;5051267;28;20119;-44
2021/11/12 10:07:23;;;;;;;1.65;0.90;;;;;;;;;;5051511;28;20427;-45
2021/11/12 10:10:06;;;;;;;4.00;0.93;;;;;;;;;;5051318;28;20025;-42
2021/11/12 10:12:44;;;;;;;2.20;0.85;;;;;;;;;;5051288;28;20070;-44
2021/11/12 10:15:14;;;;;;;3.50;0.98;;;;;;;;;;5051046;28;20025;-46
2021/11/12 10:17:41;;;;;;;1.85;0.82;;;;;;;;;;5051086;28;20024;-45
2021/11/12 10:20:10;;;;;;;2.22;0.63;;;;;;;;;;5051144;28;20078;-45
2021/11/12 10:22:39;;;;;;;9.43;1.00;;;;;;;;;;5051111;28;20017;-45
2021/11/12 10:25:07;;;;;;;8.25;1.10;;;;;;;;;;5050617;28;20025;-45
2021/11/12 10:27:34;;;;;;;7.03;1.10;;;;;;;;;;5053997;28;20032;-46
2021/11/12 10:30:10;;;;;;;6.25;1.05;;;;;;;;;;5054564;28;20166;-44
2021/11/12 10:32:37;;;;;;;8.05;1.10;;;;;;;;;;5053772;28;20483;-46
2021/11/12 10:35:09;;;;;;;3.55;1.10;;;;;;;;;;5053265;28;20481;-46
2021/11/12 10:37:36;;;;;;;;;;;;;;;;;;5052815;28;20021;-41
2021/11/12 10:40:09;;;;;;;9.88;1.67;;;;;;;;;;5052747;28;19908;-43
2021/11/12 10:42:38;;;;;;;4.82;1.20;;;;;;;;;;5049325;28;20040;-39
2021/11/12 10:45:10;;;;;;;9.63;1.20;;;;;;;;;;5033973;28;20133;-44
2021/11/12 10:47:44;;;;;;;4.30;1.05;;;;;;;;;;5033334;28;20018;-46
2021/11/12 10:50:11;;;;;;;4.80;1.00;;;;;;;;;;5034058;28;20096;-46
2021/11/12 10:52:39;;;;;;;4.68;0.90;;;;;;;;;;5033798;28;20075;-39
2021/11/12 10:55:06;;;;;;;3.75;1.00;;;;;;;;;;5034108;28;20053;-43
2021/11/12 10:57:40;;;;;;;3.67;0.90;;;;;;;;;;5032894;28;20048;-43
2021/11/12 11:00:21;;;;;;;6.20;0.98;;;;;;;;;;5034159;28;20034;-43
2021/11/12 11:02:58;;;;;;;7.03;1.08;;;;;;;;;;5033485;28;20104;-43
2021/11/12 11:05:43;;;;;;;6.28;1.02;;;;;;;;;;5033406;28;20057;-41
2021/11/12 11:08:20;;;;;;;3.22;1.20;;;;;;;;;;5034094;28;20033;-44
2021/11/12 11:10:52;;;;;;;9.27;1.30;;;;;;;;;;5033978;28;20104;-45
2021/11/12 11:13:26;;;;;;;8.38;1.30;;;;;;;;;;5032914;28;20030;-43
2021/11/12 11:15:54;;;;;;;5.30;1.10;;;;;;;;;;5033055;28;20381;-44
2021/11/12 11:18:30;;;;;;;3.95;0.85;;;;;;;;;;5032835;28;20101;-43
2021/11/12 11:21:02;;;;;;;5.40;0.98;;;;;;;;;;5032668;28;20033;-57
2021/11/12 11:23:31;;;;;;;10.27;0.90;;;;;;;;;;5033308;28;20064;-58
2021/11/12 11:26:02;;;;;;;7.95;0.82;;;;;;;;;;5031754;28;20408;-39
2021/11/12 11:28:30;;;;;;;38.42;4.47;;;;;;;;;;5032710;28;20026;-55
2021/11/12 11:30:57;;;;;;;22.10;3.20;;;;;;;;;;5032448;28;20053;-54
2021/11/12 11:33:24;;;;;;;15.07;2.00;;;;;;;;;;5032679;28;20485;-59
2021/11/12 11:35:55;;;;;;;9.75;1.40;;;;;;;;;;5032553;28;20035;-58
2021/11/12 11:38:26;;;;;;;8.77;1.13;;;;;;;;;;5031832;28;20029;-54
2021/11/12 11:40:54;;;;;;;17.93;1.63;;;;;;;;;;5043115;28;20052;-50
2021/11/12 11:43:22;;;;;;;16.10;1.80;;;;;;;;;;5048541;28;20039;-41
2021/11/12 11:45:49;;;;;;;5.30;1.00;;;;;;;;;;5052524;28;20044;-40
2021/11/12 11:48:17;;;;;;;6.10;1.00;;;;;;;;;;5046659;28;20021;-39
2021/11/12 11:50:58;;;;;;;15.80;2.00;;;;;;;;;;5051370;28;20381;-60
2021/11/12 11:53:42;;;;;;;12.85;1.77;;;;;;;;;;5032295;28;20108;-45
2021/11/12 11:56:20;;;;;;;11.98;2.15;;;;;;;;;;5050661;28;20033;-49
2021/11/12 11:58:55;;;;;;;15.75;1.95;;;;;;;;;;5034133;28;20505;-53
2021/11/12 12:01:22;;;;;;;9.68;0.80;;;;;;;;;;5051568;28;20396;-54
2021/11/12 12:04:08;;;;;;;16.00;1.90;;;;;;;;;;5052185;28;20405;-58
2021/11/12 12:06:42;;;;;;;5.68;0.80;;;;;;;;;;5051661;28;20492;-53
2021/11/12 12:09:11;;;;;;;15.27;1.20;;;;;;;;;;5051949;28;20032;-54
2021/11/12 12:11:42;;;;;;;6.30;1.00;;;;;;;;;;5051846;28;20017;-63
2021/11/12 12:14:37;;;;;;;5.70;1.20;;;;;;;;;;5054165;28;20435;-62
2021/11/12 12:17:11;;;;;;;7.47;0.98;;;;;;;;;;5034876;28;20389;-50
2021/11/12 12:19:54;;;;;;;5.55;1.00;;;;;;;;;;5052545;28;20028;-57
2021/11/12 12:31:15;;;;;;;4.00;0.70;;;;;;;;;;5051431;28;20032;-53
2021/11/12 13:25:35;;;;;;;4.18;1.30;;;;;;;;;;5051005;28;20052;-53
2021/11/12 13:28:22;;;;;;;5.63;1.30;;;;;;;;;;5050803;28;20465;-62
2021/11/12 13:31:00;;;;;;;4.93;1.08;;;;;;;;;;5050661;28;20046;-63
2021/11/12 13:33:45;;;;;;;3.95;1.10;;;;;;;;;;5050160;28;20110;-62
2021/11/12 13:36:23;;;;;;;13.10;1.80;;;;;;;;;;5050540;28;20068;-58
2021/11/12 13:38:50;;;;;;;14.27;1.65;;;;;;;;;;5049884;28;20029;-60
2021/11/12 13:41:19;;;;;;;9.55;1.85;;;;;;;;;;5050390;28;20124;-61
2021/11/12 13:43:47;;;;;;;8.95;1.70;;;;;;;;;;5156078;22;20131;-55
2021/11/12 13:46:14;;;;;;;28.00;2.53;;;;;;;;;;5060574;28;20036;-51
2021/11/12 13:48:43;;;;;;;14.05;1.75;;;;;;;;;;5063230;28;20016;-57
2021/11/12 13:51:10;;;;;;;39.95;3.65;;;;;;;;;;5063214;28;20025;-50
2021/11/12 13:53:37;;;;;;;18.42;2.22;;;;;;;;;;5064249;28;20379;-58
2021/11/12 13:56:08;;;;;;;19.58;2.20;;;;;;;;;;5065146;28;20024;-57
2021/11/12 13:58:35;;;;;;;21.45;2.15;;;;;;;;;;5059726;28;20036;-59
2021/11/12 14:01:02;;;;;;;12.30;1.73;;;;;;;;;;5059693;28;20029;-60
2021/11/12 14:03:33;;;;;;;16.92;1.92;;;;;;;;;;5071849;28;20051;-51
2021/11/12 14:06:12;;;;;;;17.92;2.67;;;;;;;;;;5071289;28;20522;-64
2021/11/12 14:08:40;;;;;;;12.40;2.03;;;;;;;;;;5071612;28;20414;-43
2021/11/12 14:11:22;;;;;;;13.00;2.08;;;;;;;;;;5073252;28;20093;-63
2021/11/12 14:13:49;;;;;;;11.18;1.90;;;;;;;;;;5071884;28;20021;-57
2021/11/12 14:19:40;;;;;;;10.77;1.60;;;;;;;;;;5066884;28;20073;-47
2021/11/12 14:22:12;;;;;;;8.98;1.58;;;;;;;;;;5060757;28;20031;-37
2021/11/12 14:24:46;;;;;;;9.23;1.60;;;;;;;;;;5070480;28;20036;-62
2021/11/12 14:27:22;;;;;;;15.57;2.40;;;;;;;;;;5063257;28;20052;-43
2021/11/12 14:32:47;;;;;;;10.23;1.88;;;;;;;;;;5069807;28;20050;-47
2021/11/12 14:40:40;;;;;;;10.32;2.13;;;;;;;;;;5070130;28;20032;-59
2021/11/12 14:46:12;;;;;;;6.63;1.65;;;;;;;;;;5091983;28;20072;-63
2021/11/12 14:48:26;;;;;;;6.90;1.85;;;;;;;;;;5075319;28;20132;-60
2021/11/12 14:51:00;;;;;;;8.30;1.85;;;;;;;;;;5090804;28;20073;-57
2021/11/12 14:53:51;;;;;;;9.10;1.75;;;;;;;;;;5091649;28;20513;-63
2021/11/12 14:56:24;;;;;;;17.02;2.00;;;;;;;;;;5090360;28;20032;-61
2021/11/12 14:58:58;;;;;;;12.65;1.98;;;;;;;;;;5089348;28;20035;-59
2021/11/12 15:01:27;;;;;;;5.85;1.60;;;;;;;;;;5090127;28;20078;-59
2021/11/12 15:04:00;;;;;;;10.20;1.52;;;;;;;;;;5090560;28;20059;-59
2021/11/12 15:06:28;;;;;;;16.27;1.70;;;;;;;;;;5090496;28;20028;-66
2021/11/12 15:09:08;;;;;;;22.98;2.40;;;;;;;;;;5084875;28;20035;-61
2021/11/12 15:11:36;;;;;;;9.05;2.20;;;;;;;;;;5091277;28;20502;-45
2021/11/12 15:14:09;;;;;;;8.55;1.60;;;;;;;;;;5081711;28;20034;-60
2021/11/12 15:16:39;;;;;;;9.45;1.65;;;;;;;;;;5079376;28;20113;-58
2021/11/12 15:19:12;;;;;;;10.98;1.80;;;;;;;;;;5079803;28;20037;-54
2021/11/12 15:21:49;;;;;;;13.07;2.25;;;;;;;;;;5090165;28;20032;-62
2021/11/12 15:24:30;;;;;;;7.97;1.60;;;;;;;;;;5085383;28;20040;-61
2021/11/12 15:29:27;;;;;;;8.85;1.65;;;;;;;;;;5085610;28;20020;-61
2021/11/12 15:34:49;;;;;;;10.18;1.60;;;;;;;;;;5087601;28;20113;-52
2021/11/12 15:40:07;;;;;;;14.10;2.22;;;;;;;;;;5086341;28;20030;-48
2021/11/12 15:47:52;;;;;;;13.90;1.65;;;;;;;;;;5086033;28;20028;-58
2021/11/12 15:53:27;;;;;;;12.25;2.67;;;;;;;;;;5079897;28;20073;-47
2021/11/12 16:09:59;;;;;;;10.65;1.70;;;;;;;;;;5085606;28;20080;-56
2021/11/12 16:15:13;;;;;;;11.38;1.63;;;;;;;;;;5080714;28;20373;-54
2021/11/12 16:25:39;;;;;;;13.60;1.83;;;;;;;;;;5085350;28;20044;-38
2021/11/12 16:27:49;;;;;;;17.45;2.45;;;;;;;;;;5084781;28;20032;-55
2021/11/12 16:30:20;;;;;;;15.90;1.90;;;;;;;;;;5082870;28;20438;-38
2021/11/12 16:32:54;;;;;;;8.52;1.77;;;;;;;;;;5088563;28;20028;-38
2021/11/12 16:35:23;;;;;;;12.23;2.97;;;;;;;;;;5086267;28;20563;-45
2021/11/12 16:37:53;;;;;;;12.45;1.90;;;;;;;;;;5085359;28;20527;-40
2021/11/12 16:40:29;;;;;;;8.98;1.45;;;;;;;;;;5085480;28;20024;-40
2021/11/12 16:43:04;;;;;;;11.57;2.17;;;;;;;;;;5084823;28;20041;-60
2021/11/12 16:48:16;;;;;;;9.48;2.08;;;;;;;;;;5083419;28;20017;-61
2021/11/12 16:51:00;;;;;;;7.97;1.58;;;;;;;;;;5083059;28;20028;-38
2021/11/12 17:01:59;;;;;;;10.65;2.15;;;;;;;;;;5083335;28;20031;-40
2021/11/12 17:46:54;;;;;;;7.85;1.77;;;;;;;;;;5083112;28;20089;-61
2021/11/12 17:52:17;;;;;;;14.50;2.20;;;;;;;;;;5083211;28;20032;-54
2021/11/12 18:03:06;;;;;;;9.02;2.03;;;;;;;;;;5090841;28;20039;-57
2021/11/12 21:44:22;;;;;;;10.63;1.67;;;;;;;;;;5082308;28;20055;-45
2021/11/12 21:46:50;;;;;;;8.90;1.50;;;;;;;;;;5084601;28;20032;-40
2021/11/12 21:49:17;;;;;;;7.10;1.45;;;;;;;;;;5087499;28;20035;-42
2021/11/12 21:51:45;;;;;;;8.38;1.73;;;;;;;;;;5086518;28;20028;-43
2021/11/12 21:54:12;;;;;;;6.53;1.30;;;;;;;;;;5087268;28;20027;-43
2021/11/12 21:56:39;;;;;;;8.68;1.60;;;;;;;;;;5085532;28;20095;-39
2021/11/12 21:59:07;;;;;;;9.63;1.50;;;;;;;;;;5084243;28;20028;-44
2021/11/12 22:01:36;;;;;;;5.53;1.25;;;;;;;;;;5081557;28;20025;-41
2021/11/12 22:04:04;;;;;;;8.05;1.67;;;;;;;;;;5082649;28;20023;-40
2021/11/12 22:06:31;;;;;;;6.93;1.55;;;;;;;;;;5085498;28;20107;-43
2021/11/12 22:08:58;;;;;;;9.48;2.00;;;;;;;;;;5081128;28;20024;-40
2021/11/12 22:11:25;;;;;;;6.15;1.52;;;;;;;;;;5081846;28;20035;-43
2021/11/12 22:13:52;;;;;;;8.25;1.60;;;;;;;;;;5086212;28;20024;-44
2021/11/12 22:16:21;;;;;;;6.68;1.92;;;;;;;;;;5089367;28;20020;-43
2021/11/12 22:18:49;;;;;;;8.93;1.77;;;;;;;;;;5087944;28;20024;-43
2021/11/12 22:21:16;;;;;;;7.72;1.58;;;;;;;;;;5082836;28;20031;-43
2021/11/12 22:23:44;;;;;;;4.60;1.70;;;;;;;;;;5085618;28;20055;-42
2021/11/12 22:26:11;;;;;;;5.82;1.23;;;;;;;;;;5090027;28;20048;-43
2021/11/12 22:28:38;;;;;;;5.53;1.33;;;;;;;;;;5087881;28;20137;-44
2021/11/12 22:31:05;;;;;;;9.00;1.75;;;;;;;;;;5086304;28;20028;-41
2021/11/12 22:33:33;;;;;;;6.05;1.35;;;;;;;;;;5093728;28;20468;-42
2021/11/12 22:36:00;;;;;;;8.40;1.92;;;;;;;;;;5086010;28;20032;-43
2021/11/12 22:38:27;;;;;;;5.43;1.42;;;;;;;;;;5086689;28;20024;-42
2021/11/12 22:40:54;;;;;;;6.70;1.80;;;;;;;;;;5087389;28;20028;-43
2021/11/12 22:43:23;;;;;;;5.88;1.40;;;;;;;;;;5087461;28;20078;-42
2021/11/12 22:45:50;;;;;;;3.97;1.15;;;;;;;;;;5088788;28;20051;-40
2021/11/12 22:48:17;;;;;;;6.20;1.40;;;;;;;;;;5088386;28;20024;-43
2021/11/12 22:50:44;;;;;;;7.85;1.45;;;;;;;;;;5086096;28;20103;-38
2021/11/12 22:53:12;;;;;;;4.13;1.27;;;;;;;;;;5092215;28;20368;-41
2021/11/12 22:55:39;;;;;;;6.78;1.45;;;;;;;;;;5086845;28;20039;-43
2021/11/12 22:58:06;;;;;;;6.97;1.42;;;;;;;;;;5088322;28;20023;-43
2021/11/12 23:00:33;;;;;;;5.20;1.42;;;;;;;;;;5089913;28;20121;-41
2021/11/12 23:03:01;;;;;;;5.15;1.30;;;;;;;;;;5086386;28;20024;-39
2021/11/12 23:05:28;;;;;;;3.53;1.13;;;;;;;;;;5088927;28;20038;-46
2021/11/12 23:07:55;;;;;;;4.15;1.10;;;;;;;;;;5090094;28;20506;-42
2021/11/12 23:10:22;;;;;;;12.70;1.73;;;;;;;;;;5084312;28;20074;-46
2021/11/12 23:12:49;;;;;;;5.43;1.60;;;;;;;;;;5091652;28;20024;-43
2021/11/12 23:15:20;;;;;;;9.48;1.60;;;;;;;;;;5085282;28;20031;-40
2021/11/12 23:17:47;;;;;;;13.25;1.55;;;;;;;;;;5086830;28;20089;-43
2021/11/12 23:20:14;;;;;;;9.00;1.65;;;;;;;;;;5087428;28;20707;-43
2021/11/12 23:22:42;;;;;;;7.43;1.38;;;;;;;;;;5085941;28;20013;-45
2021/11/12 23:25:09;;;;;;;10.07;2.15;;;;;;;;;;5089000;28;20077;-45
2021/11/12 23:27:37;;;;;;;7.45;1.60;;;;;;;;;;5089319;28;20555;-43
2021/11/12 23:30:05;;;;;;;8.38;1.40;;;;;;;;;;5088111;28;20114;-46
2021/11/12 23:32:32;;;;;;;7.28;1.90;;;;;;;;;;5079157;28;20417;-49
2021/11/12 23:34:59;;;;;;;9.75;2.08;;;;;;;;;;5088523;28;20052;-41
2021/11/12 23:37:26;;;;;;;9.95;2.28;;;;;;;;;;5086632;28;20103;-45
2021/11/12 23:39:53;;;;;;;17.30;2.42;;;;;;;;;;5090003;28;20439;-44
2021/11/12 23:42:19;;;;;;;5.85;1.90;;;;;;;;;;5088218;28;20024;-45
2021/11/12 23:44:46;;;;;;;8.38;2.40;;;;;;;;;;5087264;28;20048;-40
2021/11/12 23:47:13;;;;;;;10.45;2.58;;;;;;;;;;5087034;28;20404;-44
2021/11/12 23:49:40;;;;;;;10.68;2.65;;;;;;;;;;5090262;28;20051;-44
2021/11/12 23:52:08;;;;;;;18.02;3.10;;;;;;;;;;5087719;28;20074;-45
2021/11/12 23:54:35;;;;;;;14.45;2.80;;;;;;;;;;5088612;28;20417;-44
2021/11/12 23:57:02;;;;;;;16.40;3.35;;;;;;;;;;5090273;28;20032;-43
2021/11/12 23:59:30;;;;;;;10.98;3.05;;;;;;;;;;5084291;28;20502;-43
